sensor_id;sensor_type;location;lat;lon;timestamp;temperature;humidity
53876;DHT22;39789;53.216;5.624;2023-05-10T00:00:12;12.60;92.60
53876;DHT22;39789;53.216;5.624;2023-05-10T00:02:38;12.60;92.60
53876;DHT22;39789;53.216;5.624;2023-05-10T00:05:04;12.50;92.60
53876;DHT22;39789;53.216;5.624;2023-05-10T00:07:30;12.50;92.60
53876;DHT22;39789;53.216;5.624;2023-05-10T00:09:56;12.50;92.60
53876;DHT22;39789;53.216;5.624;2023-05-10T00:12:21;12.50;92.60
53876;DHT22;39789;53.216;5.624;2023-05-10T00:14:47;12.50;92.60
53876;DHT22;39789;53.216;5.624;2023-05-10T00:17:13;12.50;92.70
53876;DHT22;39789;53.216;5.624;2023-05-10T00:19:38;12.50;92.70
53876;DHT22;39789;53.216;5.624;2023-05-10T00:22:04;12.40;92.70
53876;DHT22;39789;53.216;5.624;2023-05-10T00:24:29;12.40;92.70
53876;DHT22;39789;53.216;5.624;2023-05-10T00:26:55;12.40;92.70
53876;DHT22;39789;53.216;5.624;2023-05-10T00:29:21;12.40;92.70
53876;DHT22;39789;53.216;5.624;2023-05-10T00:31:46;12.40;92.70
53876;DHT22;39789;53.216;5.624;2023-05-10T00:34:12;12.40;92.60
53876;DHT22;39789;53.216;5.624;2023-05-10T00:36:37;12.30;92.60
53876;DHT22;39789;53.216;5.624;2023-05-10T00:39:03;12.30;92.60
53876;DHT22;39789;53.216;5.624;2023-05-10T00:41:29;12.30;92.70
53876;DHT22;39789;53.216;5.624;2023-05-10T00:43:57;12.20;92.70
53876;DHT22;39789;53.216;5.624;2023-05-10T00:46:23;12.20;92.70
53876;DHT22;39789;53.216;5.624;2023-05-10T00:48:50;12.20;92.70
53876;DHT22;39789;53.216;5.624;2023-05-10T00:51:15;12.20;92.70
53876;DHT22;39789;53.216;5.624;2023-05-10T00:53:41;12.10;92.70
53876;DHT22;39789;53.216;5.624;2023-05-10T00:56:08;12.20;92.70
53876;DHT22;39789;53.216;5.624;2023-05-10T00:58:33;12.20;92.80
53876;DHT22;39789;53.216;5.624;2023-05-10T01:01:00;12.10;92.70
53876;DHT22;39789;53.216;5.624;2023-05-10T01:03:27;12.10;92.80
53876;DHT22;39789;53.216;5.624;2023-05-10T01:05:53;12.10;92.80
53876;DHT22;39789;53.216;5.624;2023-05-10T01:08:18;12.10;92.80
53876;DHT22;39789;53.216;5.624;2023-05-10T01:10:44;12.10;92.90
53876;DHT22;39789;53.216;5.624;2023-05-10T01:13:11;12.10;92.90
53876;DHT22;39789;53.216;5.624;2023-05-10T01:15:38;12.10;92.90
53876;DHT22;39789;53.216;5.624;2023-05-10T01:18:04;12.10;92.90
53876;DHT22;39789;53.216;5.624;2023-05-10T01:20:37;12.10;93.10
53876;DHT22;39789;53.216;5.624;2023-05-10T01:23:29;12.20;92.90
53876;DHT22;39789;53.216;5.624;2023-05-10T01:26:01;12.20;92.90
53876;DHT22;39789;53.216;5.624;2023-05-10T01:31:26;12.20;92.90
53876;DHT22;39789;53.216;5.624;2023-05-10T01:34:23;12.20;92.90
53876;DHT22;39789;53.216;5.624;2023-05-10T01:36:51;12.20;92.90
53876;DHT22;39789;53.216;5.624;2023-05-10T01:42:17;12.20;92.90
53876;DHT22;39789;53.216;5.624;2023-05-10T01:44:53;12.30;92.90
53876;DHT22;39789;53.216;5.624;2023-05-10T01:47:33;12.20;92.90
53876;DHT22;39789;53.216;5.624;2023-05-10T01:50:04;12.20;92.90
53876;DHT22;39789;53.216;5.624;2023-05-10T01:52:33;12.20;92.90
53876;DHT22;39789;53.216;5.624;2023-05-10T01:55:06;12.20;92.90
53876;DHT22;39789;53.216;5.624;2023-05-10T01:57:36;12.20;92.90
53876;DHT22;39789;53.216;5.624;2023-05-10T02:00:03;12.20;92.90
53876;DHT22;39789;53.216;5.624;2023-05-10T02:02:33;12.20;92.90
53876;DHT22;39789;53.216;5.624;2023-05-10T02:04:59;12.20;92.90
53876;DHT22;39789;53.216;5.624;2023-05-10T02:07:26;12.20;92.90
53876;DHT22;39789;53.216;5.624;2023-05-10T02:09:53;12.20;93.00
53876;DHT22;39789;53.216;5.624;2023-05-10T02:12:20;12.20;92.90
53876;DHT22;39789;53.216;5.624;2023-05-10T02:14:47;12.20;93.00
53876;DHT22;39789;53.216;5.624;2023-05-10T02:17:16;12.20;93.00
53876;DHT22;39789;53.216;5.624;2023-05-10T02:19:43;12.10;93.00
53876;DHT22;39789;53.216;5.624;2023-05-10T02:22:09;12.10;93.00
53876;DHT22;39789;53.216;5.624;2023-05-10T02:24:36;12.10;93.30
53876;DHT22;39789;53.216;5.624;2023-05-10T02:27:03;12.10;93.10
53876;DHT22;39789;53.216;5.624;2023-05-10T02:29:31;12.10;93.10
53876;DHT22;39789;53.216;5.624;2023-05-10T02:31:57;12.10;93.10
53876;DHT22;39789;53.216;5.624;2023-05-10T02:34:25;12.10;93.10
53876;DHT22;39789;53.216;5.624;2023-05-10T02:36:53;12.10;93.10
53876;DHT22;39789;53.216;5.624;2023-05-10T02:39:19;12.00;93.00
53876;DHT22;39789;53.216;5.624;2023-05-10T02:41:46;12.00;93.10
53876;DHT22;39789;53.216;5.624;2023-05-10T02:44:15;12.00;93.10
53876;DHT22;39789;53.216;5.624;2023-05-10T02:46:42;12.00;93.10
53876;DHT22;39789;53.216;5.624;2023-05-10T02:49:08;12.00;93.10
53876;DHT22;39789;53.216;5.624;2023-05-10T02:51:35;12.00;93.10
53876;DHT22;39789;53.216;5.624;2023-05-10T02:54:08;12.00;93.20
53876;DHT22;39789;53.216;5.624;2023-05-10T02:56:36;12.00;93.20
53876;DHT22;39789;53.216;5.624;2023-05-10T02:59:04;12.90;93.50
53876;DHT22;39789;53.216;5.624;2023-05-10T03:01:30;11.90;93.20
53876;DHT22;39789;53.216;5.624;2023-05-10T03:03:55;11.90;93.30
53876;DHT22;39789;53.216;5.624;2023-05-10T03:06:21;11.90;93.30
53876;DHT22;39789;53.216;5.624;2023-05-10T03:08:47;11.90;93.30
53876;DHT22;39789;53.216;5.624;2023-05-10T03:16:46;11.80;93.40
53876;DHT22;39789;53.216;5.624;2023-05-10T03:19:26;11.80;93.40
53876;DHT22;39789;53.216;5.624;2023-05-10T03:21:56;11.80;93.40
53876;DHT22;39789;53.216;5.624;2023-05-10T03:24:27;11.80;93.50
53876;DHT22;39789;53.216;5.624;2023-05-10T03:26:55;11.80;93.50
53876;DHT22;39789;53.216;5.624;2023-05-10T03:29:22;11.80;93.50
53876;DHT22;39789;53.216;5.624;2023-05-10T03:31:48;11.80;93.50
53876;DHT22;39789;53.216;5.624;2023-05-10T03:34:14;11.80;93.50
53876;DHT22;39789;53.216;5.624;2023-05-10T03:36:39;11.80;93.50
53876;DHT22;39789;53.216;5.624;2023-05-10T03:39:05;11.80;93.50
53876;DHT22;39789;53.216;5.624;2023-05-10T03:41:30;11.80;93.50
53876;DHT22;39789;53.216;5.624;2023-05-10T03:43:56;11.80;93.60
53876;DHT22;39789;53.216;5.624;2023-05-10T03:46:22;11.80;93.50
53876;DHT22;39789;53.216;5.624;2023-05-10T03:48:47;11.80;93.60
53876;DHT22;39789;53.216;5.624;2023-05-10T03:51:13;11.80;93.60
53876;DHT22;39789;53.216;5.624;2023-05-10T03:53:38;11.80;93.60
53876;DHT22;39789;53.216;5.624;2023-05-10T03:56:04;11.80;93.60
53876;DHT22;39789;53.216;5.624;2023-05-10T03:58:29;11.80;93.60
53876;DHT22;39789;53.216;5.624;2023-05-10T04:00:55;11.80;93.60
53876;DHT22;39789;53.216;5.624;2023-05-10T04:03:21;11.80;93.60
53876;DHT22;39789;53.216;5.624;2023-05-10T04:05:47;11.80;93.60
53876;DHT22;39789;53.216;5.624;2023-05-10T04:08:12;11.80;93.60
53876;DHT22;39789;53.216;5.624;2023-05-10T04:10:38;11.80;93.60
53876;DHT22;39789;53.216;5.624;2023-05-10T04:13:03;11.80;93.70
53876;DHT22;39789;53.216;5.624;2023-05-10T04:15:29;11.90;93.70
53876;DHT22;39789;53.216;5.624;2023-05-10T04:17:55;11.80;93.60
53876;DHT22;39789;53.216;5.624;2023-05-10T04:20:20;11.90;93.70
53876;DHT22;39789;53.216;5.624;2023-05-10T04:22:46;11.90;93.70
53876;DHT22;39789;53.216;5.624;2023-05-10T04:25:11;11.90;93.70
53876;DHT22;39789;53.216;5.624;2023-05-10T04:27:37;11.90;93.70
53876;DHT22;39789;53.216;5.624;2023-05-10T04:30:03;11.90;93.70
53876;DHT22;39789;53.216;5.624;2023-05-10T04:32:28;11.90;93.60
53876;DHT22;39789;53.216;5.624;2023-05-10T04:34:54;11.90;93.60
53876;DHT22;39789;53.216;5.624;2023-05-10T04:37:20;11.90;93.60
53876;DHT22;39789;53.216;5.624;2023-05-10T04:39:46;11.90;93.60
53876;DHT22;39789;53.216;5.624;2023-05-10T04:42:12;11.90;93.60
53876;DHT22;39789;53.216;5.624;2023-05-10T04:44:40;11.90;93.60
53876;DHT22;39789;53.216;5.624;2023-05-10T04:47:06;11.90;93.60
53876;DHT22;39789;53.216;5.624;2023-05-10T04:49:31;11.90;93.60
53876;DHT22;39789;53.216;5.624;2023-05-10T04:51:57;11.90;93.60
53876;DHT22;39789;53.216;5.624;2023-05-10T04:54:23;11.90;93.60
53876;DHT22;39789;53.216;5.624;2023-05-10T04:56:48;11.90;93.60
53876;DHT22;39789;53.216;5.624;2023-05-10T04:59:14;12.80;93.80
53876;DHT22;39789;53.216;5.624;2023-05-10T05:01:39;11.90;93.60
53876;DHT22;39789;53.216;5.624;2023-05-10T05:04:05;12.00;93.70
53876;DHT22;39789;53.216;5.624;2023-05-10T05:06:32;12.00;93.70
53876;DHT22;39789;53.216;5.624;2023-05-10T05:08:57;12.00;93.70
53876;DHT22;39789;53.216;5.624;2023-05-10T05:11:23;12.00;93.70
53876;DHT22;39789;53.216;5.624;2023-05-10T05:13:48;12.00;93.70
53876;DHT22;39789;53.216;5.624;2023-05-10T05:16:14;12.30;93.70
53876;DHT22;39789;53.216;5.624;2023-05-10T05:18:40;12.00;93.60
53876;DHT22;39789;53.216;5.624;2023-05-10T05:21:19;12.00;93.70
53876;DHT22;39789;53.216;5.624;2023-05-10T05:23:45;12.00;93.60
53876;DHT22;39789;53.216;5.624;2023-05-10T05:26:11;12.10;93.70
53876;DHT22;39789;53.216;5.624;2023-05-10T05:28:37;12.10;93.70
53876;DHT22;39789;53.216;5.624;2023-05-10T05:31:06;12.10;93.70
53876;DHT22;39789;53.216;5.624;2023-05-10T05:33:35;12.20;93.70
53876;DHT22;39789;53.216;5.624;2023-05-10T05:36:04;12.40;93.80
53876;DHT22;39789;53.216;5.624;2023-05-10T05:38:30;12.20;93.70
53876;DHT22;39789;53.216;5.624;2023-05-10T05:40:56;12.20;93.60
53876;DHT22;39789;53.216;5.624;2023-05-10T05:43:21;12.20;93.60
53876;DHT22;39789;53.216;5.624;2023-05-10T05:45:47;12.20;93.60
53876;DHT22;39789;53.216;5.624;2023-05-10T05:48:13;12.20;93.60
53876;DHT22;39789;53.216;5.624;2023-05-10T05:50:38;12.20;93.60
53876;DHT22;39789;53.216;5.624;2023-05-10T05:53:04;12.20;93.60
53876;DHT22;39789;53.216;5.624;2023-05-10T05:55:29;12.20;93.60
53876;DHT22;39789;53.216;5.624;2023-05-10T05:57:57;12.20;93.50
53876;DHT22;39789;53.216;5.624;2023-05-10T06:00:23;12.30;93.60
53876;DHT22;39789;53.216;5.624;2023-05-10T06:02:48;12.20;93.60
53876;DHT22;39789;53.216;5.624;2023-05-10T06:05:14;12.30;93.60
53876;DHT22;39789;53.216;5.624;2023-05-10T06:07:40;12.30;93.50
53876;DHT22;39789;53.216;5.624;2023-05-10T06:10:09;12.20;93.50
53876;DHT22;39789;53.216;5.624;2023-05-10T06:12:35;12.20;93.50
53876;DHT22;39789;53.216;5.624;2023-05-10T06:15:01;12.30;93.50
53876;DHT22;39789;53.216;5.624;2023-05-10T06:17:26;12.30;93.50
53876;DHT22;39789;53.216;5.624;2023-05-10T06:19:52;12.30;93.50
53876;DHT22;39789;53.216;5.624;2023-05-10T06:22:18;12.30;93.50
53876;DHT22;39789;53.216;5.624;2023-05-10T06:24:43;12.30;93.50
53876;DHT22;39789;53.216;5.624;2023-05-10T06:27:09;12.30;93.50
53876;DHT22;39789;53.216;5.624;2023-05-10T06:29:35;12.30;93.50
53876;DHT22;39789;53.216;5.624;2023-05-10T06:32:00;12.30;93.50
53876;DHT22;39789;53.216;5.624;2023-05-10T06:34:26;12.30;93.60
53876;DHT22;39789;53.216;5.624;2023-05-10T06:36:52;12.30;93.60
53876;DHT22;39789;53.216;5.624;2023-05-10T06:39:18;12.30;93.50
53876;DHT22;39789;53.216;5.624;2023-05-10T06:41:43;12.30;93.50
53876;DHT22;39789;53.216;5.624;2023-05-10T06:44:09;12.30;93.50
53876;DHT22;39789;53.216;5.624;2023-05-10T06:46:35;12.40;93.50
53876;DHT22;39789;53.216;5.624;2023-05-10T06:49:00;12.40;93.50
53876;DHT22;39789;53.216;5.624;2023-05-10T06:51:26;12.40;93.50
53876;DHT22;39789;53.216;5.624;2023-05-10T06:53:51;12.40;93.50
53876;DHT22;39789;53.216;5.624;2023-05-10T06:56:17;12.40;93.50
53876;DHT22;39789;53.216;5.624;2023-05-10T06:58:42;12.40;93.50
53876;DHT22;39789;53.216;5.624;2023-05-10T07:01:08;12.40;93.40
53876;DHT22;39789;53.216;5.624;2023-05-10T07:03:33;12.50;93.40
53876;DHT22;39789;53.216;5.624;2023-05-10T07:06:03;12.40;93.40
53876;DHT22;39789;53.216;5.624;2023-05-10T07:08:33;12.50;93.50
53876;DHT22;39789;53.216;5.624;2023-05-10T07:11:06;12.50;93.40
53876;DHT22;39789;53.216;5.624;2023-05-10T07:13:35;12.50;93.40
53876;DHT22;39789;53.216;5.624;2023-05-10T07:16:01;12.50;93.40
53876;DHT22;39789;53.216;5.624;2023-05-10T07:18:27;12.50;93.40
53876;DHT22;39789;53.216;5.624;2023-05-10T07:20:53;12.60;93.40
53876;DHT22;39789;53.216;5.624;2023-05-10T07:23:19;12.60;93.30
53876;DHT22;39789;53.216;5.624;2023-05-10T07:25:46;12.70;93.30
53876;DHT22;39789;53.216;5.624;2023-05-10T07:28:12;12.70;93.40
53876;DHT22;39789;53.216;5.624;2023-05-10T07:30:37;12.80;93.40
53876;DHT22;39789;53.216;5.624;2023-05-10T07:33:06;12.90;93.40
53876;DHT22;39789;53.216;5.624;2023-05-10T07:35:33;13.40;93.50
53876;DHT22;39789;53.216;5.624;2023-05-10T07:37:59;13.00;93.30
53876;DHT22;39789;53.216;5.624;2023-05-10T07:40:25;13.10;93.30
53876;DHT22;39789;53.216;5.624;2023-05-10T07:42:51;13.10;93.30
53876;DHT22;39789;53.216;5.624;2023-05-10T07:45:17;13.10;93.20
53876;DHT22;39789;53.216;5.624;2023-05-10T07:47:43;13.20;93.10
53876;DHT22;39789;53.216;5.624;2023-05-10T07:50:08;13.10;93.00
53876;DHT22;39789;53.216;5.624;2023-05-10T07:52:34;13.10;93.00
53876;DHT22;39789;53.216;5.624;2023-05-10T07:55:00;13.10;93.00
53876;DHT22;39789;53.216;5.624;2023-05-10T07:57:25;13.20;93.00
53876;DHT22;39789;53.216;5.624;2023-05-10T07:59:51;13.00;92.80
53876;DHT22;39789;53.216;5.624;2023-05-10T08:02:16;13.00;92.80
53876;DHT22;39789;53.216;5.624;2023-05-10T08:04:42;13.00;92.80
53876;DHT22;39789;53.216;5.624;2023-05-10T08:07:08;13.10;92.90
53876;DHT22;39789;53.216;5.624;2023-05-10T08:09:33;13.10;92.90
53876;DHT22;39789;53.216;5.624;2023-05-10T08:11:59;13.10;92.80
53876;DHT22;39789;53.216;5.624;2023-05-10T08:14:26;13.00;92.90
53876;DHT22;39789;53.216;5.624;2023-05-10T08:16:52;13.10;92.70
53876;DHT22;39789;53.216;5.624;2023-05-10T08:19:18;13.00;92.80
53876;DHT22;39789;53.216;5.624;2023-05-10T08:21:45;13.10;92.80
53876;DHT22;39789;53.216;5.624;2023-05-10T08:24:11;13.20;92.70
53876;DHT22;39789;53.216;5.624;2023-05-10T08:26:37;13.30;92.80
53876;DHT22;39789;53.216;5.624;2023-05-10T08:29:02;13.40;92.90
53876;DHT22;39789;53.216;5.624;2023-05-10T08:31:28;13.40;92.70
53876;DHT22;39789;53.216;5.624;2023-05-10T08:33:53;13.40;92.50
53876;DHT22;39789;53.216;5.624;2023-05-10T08:36:19;13.50;92.50
53876;DHT22;39789;53.216;5.624;2023-05-10T08:38:49;13.50;92.50
53876;DHT22;39789;53.216;5.624;2023-05-10T08:41:15;13.60;92.60
53876;DHT22;39789;53.216;5.624;2023-05-10T08:43:41;13.60;92.30
53876;DHT22;39789;53.216;5.624;2023-05-10T08:46:15;13.70;92.50
53876;DHT22;39789;53.216;5.624;2023-05-10T08:48:44;13.70;92.40
53876;DHT22;39789;53.216;5.624;2023-05-10T08:51:14;13.70;92.20
53876;DHT22;39789;53.216;5.624;2023-05-10T08:53:40;13.70;92.10
53876;DHT22;39789;53.216;5.624;2023-05-10T08:56:06;13.80;92.20
53876;DHT22;39789;53.216;5.624;2023-05-10T08:58:32;13.90;92.20
53876;DHT22;39789;53.216;5.624;2023-05-10T09:00:59;13.90;92.10
53876;DHT22;39789;53.216;5.624;2023-05-10T09:03:26;13.90;92.20
53876;DHT22;39789;53.216;5.624;2023-05-10T09:05:51;13.90;92.10
53876;DHT22;39789;53.216;5.624;2023-05-10T09:08:17;13.90;92.00
53876;DHT22;39789;53.216;5.624;2023-05-10T09:10:44;13.90;92.00
53876;DHT22;39789;53.216;5.624;2023-05-10T09:13:13;13.90;91.90
53876;DHT22;39789;53.216;5.624;2023-05-10T09:15:39;14.00;92.00
53876;DHT22;39789;53.216;5.624;2023-05-10T09:18:05;14.00;92.00
53876;DHT22;39789;53.216;5.624;2023-05-10T09:20:30;14.00;92.00
53876;DHT22;39789;53.216;5.624;2023-05-10T09:22:56;13.90;91.60
53876;DHT22;39789;53.216;5.624;2023-05-10T09:25:22;13.90;91.50
53876;DHT22;39789;53.216;5.624;2023-05-10T09:27:48;13.80;91.50
53876;DHT22;39789;53.216;5.624;2023-05-10T09:30:26;13.80;91.60
53876;DHT22;39789;53.216;5.624;2023-05-10T09:32:53;13.90;91.60
53876;DHT22;39789;53.216;5.624;2023-05-10T09:35:25;13.90;91.70
53876;DHT22;39789;53.216;5.624;2023-05-10T09:37:52;14.00;91.60
53876;DHT22;39789;53.216;5.624;2023-05-10T09:40:21;13.90;91.60
53876;DHT22;39789;53.216;5.624;2023-05-10T09:43:01;13.90;91.50
53876;DHT22;39789;53.216;5.624;2023-05-10T09:45:28;13.90;91.50
53876;DHT22;39789;53.216;5.624;2023-05-10T09:47:54;14.00;92.00
53876;DHT22;39789;53.216;5.624;2023-05-10T09:50:21;14.20;91.70
53876;DHT22;39789;53.216;5.624;2023-05-10T09:55:14;14.20;91.50
53876;DHT22;39789;53.216;5.624;2023-05-10T09:57:40;14.30;91.40
53876;DHT22;39789;53.216;5.624;2023-05-10T10:00:06;14.30;91.40
53876;DHT22;39789;53.216;5.624;2023-05-10T10:02:33;14.40;91.30
53876;DHT22;39789;53.216;5.624;2023-05-10T10:05:01;14.40;91.10
53876;DHT22;39789;53.216;5.624;2023-05-10T10:07:27;14.50;91.10
53876;DHT22;39789;53.216;5.624;2023-05-10T10:09:53;14.40;90.90
53876;DHT22;39789;53.216;5.624;2023-05-10T10:12:19;14.40;90.90
53876;DHT22;39789;53.216;5.624;2023-05-10T10:14:48;14.60;91.00
53876;DHT22;39789;53.216;5.624;2023-05-10T10:17:16;15.00;90.90
53876;DHT22;39789;53.216;5.624;2023-05-10T10:19:41;14.90;90.90
53876;DHT22;39789;53.216;5.624;2023-05-10T10:22:07;15.10;90.80
53876;DHT22;39789;53.216;5.624;2023-05-10T10:24:33;15.10;90.10
53876;DHT22;39789;53.216;5.624;2023-05-10T10:27:07;15.10;90.20
53876;DHT22;39789;53.216;5.624;2023-05-10T10:29:59;15.20;89.80
53876;DHT22;39789;53.216;5.624;2023-05-10T10:32:47;15.40;89.50
53876;DHT22;39789;53.216;5.624;2023-05-10T10:35:17;15.50;89.60
53876;DHT22;39789;53.216;5.624;2023-05-10T10:37:47;15.70;89.80
53876;DHT22;39789;53.216;5.624;2023-05-10T10:40:28;15.70;88.90
53876;DHT22;39789;53.216;5.624;2023-05-10T10:42:55;15.70;87.70
53876;DHT22;39789;53.216;5.624;2023-05-10T10:45:22;15.60;88.40
53876;DHT22;39789;53.216;5.624;2023-05-10T10:47:48;15.60;88.40
53876;DHT22;39789;53.216;5.624;2023-05-10T10:50:15;15.70;88.80
53876;DHT22;39789;53.216;5.624;2023-05-10T10:52:45;15.80;88.30
53876;DHT22;39789;53.216;5.624;2023-05-10T10:55:18;15.90;87.80
53876;DHT22;39789;53.216;5.624;2023-05-10T10:57:47;16.00;87.90
53876;DHT22;39789;53.216;5.624;2023-05-10T11:05:50;16.20;86.90
53876;DHT22;39789;53.216;5.624;2023-05-10T11:13:28;16.40;85.60
53876;DHT22;39789;53.216;5.624;2023-05-10T11:15:55;16.50;85.70
53876;DHT22;39789;53.216;5.624;2023-05-10T11:18:29;16.50;85.90
53876;DHT22;39789;53.216;5.624;2023-05-10T11:21:00;16.30;84.20
53876;DHT22;39789;53.216;5.624;2023-05-10T11:26:13;16.00;83.40
53876;DHT22;39789;53.216;5.624;2023-05-10T11:28:43;16.00;85.10
53876;DHT22;39789;53.216;5.624;2023-05-10T11:31:09;16.10;85.10
53876;DHT22;39789;53.216;5.624;2023-05-10T11:33:50;16.20;84.90
53876;DHT22;39789;53.216;5.624;2023-05-10T11:36:27;16.40;84.00
53876;DHT22;39789;53.216;5.624;2023-05-10T11:38:53;16.40;84.70
53876;DHT22;39789;53.216;5.624;2023-05-10T11:41:20;16.60;84.70
53876;DHT22;39789;53.216;5.624;2023-05-10T11:43:53;16.60;84.00
53876;DHT22;39789;53.216;5.624;2023-05-10T11:46:23;16.70;83.40
53876;DHT22;39789;53.216;5.624;2023-05-10T11:48:51;16.80;83.60
53876;DHT22;39789;53.216;5.624;2023-05-10T11:51:20;16.90;83.60
53876;DHT22;39789;53.216;5.624;2023-05-10T11:53:47;16.90;82.00
53876;DHT22;39789;53.216;5.624;2023-05-10T11:56:14;16.70;82.50
53876;DHT22;39789;53.216;5.624;2023-05-10T11:58:39;16.60;82.80
53876;DHT22;39789;53.216;5.624;2023-05-10T12:01:07;16.60;82.80
53876;DHT22;39789;53.216;5.624;2023-05-10T12:03:33;16.70;82.70
53876;DHT22;39789;53.216;5.624;2023-05-10T12:06:00;16.90;82.60
53876;DHT22;39789;53.216;5.624;2023-05-10T12:08:28;16.90;82.10
53876;DHT22;39789;53.216;5.624;2023-05-10T12:11:05;16.90;81.60
53876;DHT22;39789;53.216;5.624;2023-05-10T12:13:31;16.80;80.40
53876;DHT22;39789;53.216;5.624;2023-05-10T12:15:59;16.80;81.90
53876;DHT22;39789;53.216;5.624;2023-05-10T12:18:39;16.80;81.80
53876;DHT22;39789;53.216;5.624;2023-05-10T12:21:05;16.70;81.60
53876;DHT22;39789;53.216;5.624;2023-05-10T12:23:31;16.60;82.00
53876;DHT22;39789;53.216;5.624;2023-05-10T12:26:02;16.70;82.40
53876;DHT22;39789;53.216;5.624;2023-05-10T12:28:30;16.70;82.10
53876;DHT22;39789;53.216;5.624;2023-05-10T12:30:57;16.70;82.10
53876;DHT22;39789;53.216;5.624;2023-05-10T12:33:23;16.60;82.10
53876;DHT22;39789;53.216;5.624;2023-05-10T12:35:51;16.80;82.70
53876;DHT22;39789;53.216;5.624;2023-05-10T12:38:40;16.80;82.50
53876;DHT22;39789;53.216;5.624;2023-05-10T12:41:13;17.00;81.80
53876;DHT22;39789;53.216;5.624;2023-05-10T12:43:39;17.00;82.10
53876;DHT22;39789;53.216;5.624;2023-05-10T12:48:31;17.00;81.90
53876;DHT22;39789;53.216;5.624;2023-05-10T12:50:59;17.10;81.90
53876;DHT22;39789;53.216;5.624;2023-05-10T12:53:25;17.00;81.50
53876;DHT22;39789;53.216;5.624;2023-05-10T12:55:51;16.90;81.20
53876;DHT22;39789;53.216;5.624;2023-05-10T12:58:16;16.80;81.60
53876;DHT22;39789;53.216;5.624;2023-05-10T13:00:42;16.70;81.70
53876;DHT22;39789;53.216;5.624;2023-05-10T13:03:09;16.70;81.30
53876;DHT22;39789;53.216;5.624;2023-05-10T13:05:35;16.70;82.00
53876;DHT22;39789;53.216;5.624;2023-05-10T13:08:01;16.80;81.90
53876;DHT22;39789;53.216;5.624;2023-05-10T13:10:31;16.90;82.20
53876;DHT22;39789;53.216;5.624;2023-05-10T13:13:00;17.00;81.80
53876;DHT22;39789;53.216;5.624;2023-05-10T13:15:26;17.00;81.00
53876;DHT22;39789;53.216;5.624;2023-05-10T13:17:54;16.90;81.80
53876;DHT22;39789;53.216;5.624;2023-05-10T13:20:20;16.80;80.20
53876;DHT22;39789;53.216;5.624;2023-05-10T13:22:46;16.50;80.30
53876;DHT22;39789;53.216;5.624;2023-05-10T13:25:12;16.40;80.90
53876;DHT22;39789;53.216;5.624;2023-05-10T13:27:40;16.50;81.50
53876;DHT22;39789;53.216;5.624;2023-05-10T13:30:07;16.50;81.40
53876;DHT22;39789;53.216;5.624;2023-05-10T13:32:34;16.40;81.20
53876;DHT22;39789;53.216;5.624;2023-05-10T13:34:59;16.30;81.20
53876;DHT22;39789;53.216;5.624;2023-05-10T13:37:25;16.30;81.90
53876;DHT22;39789;53.216;5.624;2023-05-10T13:39:51;16.40;82.00
53876;DHT22;39789;53.216;5.624;2023-05-10T13:42:17;16.70;82.00
53876;DHT22;39789;53.216;5.624;2023-05-10T13:44:43;16.70;81.60
53876;DHT22;39789;53.216;5.624;2023-05-10T13:47:09;16.70;81.10
53876;DHT22;39789;53.216;5.624;2023-05-10T13:49:35;16.80;81.00
53876;DHT22;39789;53.216;5.624;2023-05-10T13:52:01;16.90;81.10
53876;DHT22;39789;53.216;5.624;2023-05-10T13:54:41;16.90;80.40
53876;DHT22;39789;53.216;5.624;2023-05-10T13:57:07;16.70;79.40
53876;DHT22;39789;53.216;5.624;2023-05-10T13:59:32;16.70;79.50
53876;DHT22;39789;53.216;5.624;2023-05-10T14:01:58;16.30;80.30
53876;DHT22;39789;53.216;5.624;2023-05-10T14:04:25;16.10;80.40
53876;DHT22;39789;53.216;5.624;2023-05-10T14:06:50;16.10;81.10
53876;DHT22;39789;53.216;5.624;2023-05-10T14:09:18;16.00;81.20
53876;DHT22;39789;53.216;5.624;2023-05-10T14:11:43;16.00;81.00
53876;DHT22;39789;53.216;5.624;2023-05-10T14:14:10;15.70;80.90
53876;DHT22;39789;53.216;5.624;2023-05-10T14:16:36;15.70;82.20
53876;DHT22;39789;53.216;5.624;2023-05-10T14:19:01;15.50;81.50
53876;DHT22;39789;53.216;5.624;2023-05-10T14:21:27;15.30;81.40
53876;DHT22;39789;53.216;5.624;2023-05-10T14:23:54;15.20;82.00
53876;DHT22;39789;53.216;5.624;2023-05-10T14:26:21;15.10;82.10
53876;DHT22;39789;53.216;5.624;2023-05-10T14:28:47;15.00;82.30
53876;DHT22;39789;53.216;5.624;2023-05-10T14:31:12;14.90;82.50
53876;DHT22;39789;53.216;5.624;2023-05-10T14:33:38;14.90;82.50
53876;DHT22;39789;53.216;5.624;2023-05-10T14:36:03;14.90;82.60
53876;DHT22;39789;53.216;5.624;2023-05-10T14:38:29;14.90;82.90
53876;DHT22;39789;53.216;5.624;2023-05-10T14:40:55;14.90;82.90
53876;DHT22;39789;53.216;5.624;2023-05-10T14:43:21;14.90;82.90
53876;DHT22;39789;53.216;5.624;2023-05-10T14:45:46;14.80;83.00
53876;DHT22;39789;53.216;5.624;2023-05-10T14:48:12;14.90;83.20
53876;DHT22;39789;53.216;5.624;2023-05-10T14:50:41;14.90;82.90
53876;DHT22;39789;53.216;5.624;2023-05-10T14:53:06;14.80;83.00
53876;DHT22;39789;53.216;5.624;2023-05-10T14:55:32;14.90;83.40
53876;DHT22;39789;53.216;5.624;2023-05-10T14:57:58;15.00;83.30
53876;DHT22;39789;53.216;5.624;2023-05-10T15:00:23;14.90;82.90
53876;DHT22;39789;53.216;5.624;2023-05-10T15:02:49;15.00;83.20
53876;DHT22;39789;53.216;5.624;2023-05-10T15:05:15;15.00;83.40
53876;DHT22;39789;53.216;5.624;2023-05-10T15:07:40;14.90;83.00
53876;DHT22;39789;53.216;5.624;2023-05-10T15:10:09;14.90;83.20
53876;DHT22;39789;53.216;5.624;2023-05-10T15:12:34;15.00;83.20
53876;DHT22;39789;53.216;5.624;2023-05-10T15:15:00;15.00;83.20
53876;DHT22;39789;53.216;5.624;2023-05-10T15:17:26;14.90;82.50
53876;DHT22;39789;53.216;5.624;2023-05-10T15:19:51;14.90;83.10
53876;DHT22;39789;53.216;5.624;2023-05-10T15:22:17;14.80;83.20
53876;DHT22;39789;53.216;5.624;2023-05-10T15:24:43;15.00;83.70
53876;DHT22;39789;53.216;5.624;2023-05-10T15:27:08;14.70;83.60
53876;DHT22;39789;53.216;5.624;2023-05-10T15:29:34;14.60;83.40
53876;DHT22;39789;53.216;5.624;2023-05-10T15:32:01;14.60;83.80
53876;DHT22;39789;53.216;5.624;2023-05-10T15:34:28;14.50;83.90
53876;DHT22;39789;53.216;5.624;2023-05-10T15:36:53;14.60;84.20
53876;DHT22;39789;53.216;5.624;2023-05-10T15:39:19;14.70;84.30
53876;DHT22;39789;53.216;5.624;2023-05-10T15:41:45;14.70;83.90
53876;DHT22;39789;53.216;5.624;2023-05-10T15:44:10;14.70;83.90
53876;DHT22;39789;53.216;5.624;2023-05-10T15:46:36;14.80;84.10
53876;DHT22;39789;53.216;5.624;2023-05-10T15:49:03;14.80;83.80
53876;DHT22;39789;53.216;5.624;2023-05-10T15:51:28;14.80;83.70
53876;DHT22;39789;53.216;5.624;2023-05-10T15:53:54;14.70;83.70
53876;DHT22;39789;53.216;5.624;2023-05-10T15:56:20;14.70;83.50
53876;DHT22;39789;53.216;5.624;2023-05-10T15:58:45;14.70;83.70